createdAt,value
2023-03-17T00:04:11.208Z,18.96
2023-03-17T00:09:12.245Z,18.89
2023-03-17T00:14:12.574Z,18.83
2023-03-17T00:19:13.528Z,18.84
2023-03-17T00:24:15.361Z,18.79
2023-03-17T00:29:15.251Z,18.76
2023-03-17T00:34:16.112Z,18.71
2023-03-17T00:39:16.995Z,18.64
2023-03-17T00:44:18.102Z,18.62
2023-03-17T00:49:18.995Z,18.64
2023-03-17T00:54:19.831Z,18.57
2023-03-17T00:59:20.987Z,18.51
2023-03-17T01:04:21.838Z,18.50
2023-03-17T01:09:22.692Z,18.49
2023-03-17T01:14:23.815Z,18.47
2023-03-17T01:19:24.650Z,18.42
2023-03-17T01:24:25.502Z,18.42
2023-03-17T01:29:26.602Z,18.42
2023-03-17T01:34:27.469Z,18.39
2023-03-17T01:39:28.330Z,18.32
2023-03-17T01:44:29.461Z,18.31
2023-03-17T01:49:30.356Z,18.28
2023-03-17T01:54:31.380Z,18.28
2023-03-17T01:59:32.525Z,18.28
2023-03-17T02:04:33.437Z,18.26
2023-03-17T02:09:34.278Z,18.14
2023-03-17T02:14:35.435Z,18.07
2023-03-17T02:19:43.290Z,17.98
2023-03-17T02:24:37.110Z,17.91
2023-03-17T02:29:38.274Z,17.86
2023-03-17T02:34:39.135Z,17.81
2023-03-17T02:39:40.079Z,17.77
2023-03-17T02:44:41.211Z,17.71
2023-03-17T02:49:42.109Z,17.66
2023-03-17T02:54:43.032Z,17.62
2023-03-17T02:59:44.187Z,17.58
2023-03-17T03:04:45.084Z,17.54
2023-03-17T03:09:45.987Z,17.54
2023-03-17T03:14:47.155Z,17.46
2023-03-17T03:19:48.054Z,17.43
2023-03-17T03:24:48.957Z,17.39
2023-03-17T03:29:50.123Z,17.36
2023-03-17T03:34:51.017Z,17.33
2023-03-17T03:39:51.919Z,17.32
2023-03-17T03:44:53.079Z,17.30
2023-03-17T03:49:53.957Z,17.28
2023-03-17T03:54:54.854Z,17.25
2023-03-17T03:59:56.018Z,17.27
2023-03-17T04:04:57.032Z,17.22
2023-03-17T04:09:57.898Z,17.24
2023-03-17T04:14:59.060Z,17.22
2023-03-17T04:19:59.973Z,17.20
2023-03-17T04:25:00.890Z,17.20
2023-03-17T04:30:02.046Z,17.17
2023-03-17T04:35:02.957Z,17.71
2023-03-17T04:40:03.849Z,18.35
2023-03-17T04:45:05.055Z,18.51
2023-03-17T04:50:05.907Z,18.62
2023-03-17T04:55:06.799Z,18.60
2023-03-17T05:00:07.914Z,18.60
2023-03-17T05:05:08.757Z,18.66
2023-03-17T05:10:09.581Z,18.79
2023-03-17T05:15:10.656Z,18.90
2023-03-17T05:20:11.471Z,19.07
2023-03-17T05:25:12.294Z,19.02
2023-03-17T05:30:13.360Z,19.09
2023-03-17T05:35:14.207Z,19.17
2023-03-17T05:40:15.127Z,19.27
2023-03-17T05:45:16.130Z,19.39
2023-03-17T05:50:16.932Z,19.47
2023-03-17T05:55:17.743Z,19.55
2023-03-17T06:00:18.840Z,19.64
2023-03-17T06:05:19.634Z,19.70
2023-03-17T06:10:20.458Z,19.76
2023-03-17T06:15:21.502Z,19.80
2023-03-17T06:20:22.425Z,19.85
2023-03-17T06:25:23.216Z,19.98
2023-03-17T06:30:24.267Z,20.19
2023-03-17T06:35:25.113Z,20.37
2023-03-17T06:40:25.859Z,20.53
2023-03-17T06:45:26.883Z,20.66
2023-03-17T06:50:27.654Z,20.82
2023-03-17T06:55:29.022Z,20.97
2023-03-17T07:00:28.964Z,21.19
2023-03-17T07:05:30.423Z,21.27
2023-03-17T07:10:30.932Z,21.28
2023-03-17T07:15:32.115Z,21.09
2023-03-17T07:20:32.548Z,20.38
2023-03-17T07:25:33.692Z,20.04
2023-03-17T07:30:34.056Z,19.85
2023-03-17T07:35:35.063Z,19.82
2023-03-17T07:40:35.879Z,20.10
2023-03-17T07:45:36.949Z,20.57
2023-03-17T07:50:37.669Z,20.91
2023-03-17T07:55:38.420Z,21.15
2023-03-17T08:00:39.416Z,21.34
2023-03-17T08:05:40.185Z,21.66
2023-03-17T08:10:40.911Z,25.22
2023-03-17T08:15:41.868Z,27.62
2023-03-17T08:20:42.584Z,27.55
2023-03-17T08:25:50.323Z,28.74
2023-03-17T08:30:43.945Z,30.13
2023-03-17T08:35:44.872Z,29.27
2023-03-17T08:40:45.502Z,25.74
2023-03-17T08:45:46.275Z,25.01
2023-03-17T08:50:47.132Z,24.67
2023-03-17T08:55:47.800Z,24.42
2023-03-17T09:00:48.465Z,24.09
2023-03-17T09:05:49.389Z,23.87
2023-03-17T09:10:50.055Z,23.96
2023-03-17T09:15:52.011Z,23.90
2023-03-17T09:20:51.280Z,23.86
2023-03-17T09:25:51.958Z,23.81
2023-03-17T09:30:53.070Z,23.71
2023-03-17T09:35:53.724Z,23.57
2023-03-17T09:40:54.369Z,23.53
2023-03-17T09:45:55.283Z,23.54
2023-03-17T09:50:55.949Z,23.47
2023-03-17T09:55:56.612Z,23.35
2023-03-17T10:00:57.547Z,23.31
2023-03-17T10:05:58.252Z,23.21
2023-03-17T10:10:58.917Z,23.14
2023-03-17T10:15:59.924Z,23.12
2023-03-17T10:21:00.574Z,23.06
2023-03-17T10:26:01.261Z,22.96
2023-03-17T10:31:02.268Z,22.89
2023-03-17T10:36:02.993Z,22.84
2023-03-17T10:41:03.637Z,22.72
2023-03-17T10:46:04.571Z,22.69
2023-03-17T10:51:05.269Z,22.69
2023-03-17T10:56:05.900Z,22.67
2023-03-17T11:01:06.845Z,22.66
2023-03-17T11:06:07.501Z,22.67
2023-03-17T11:11:08.179Z,22.64
2023-03-17T11:16:09.133Z,22.63
2023-03-17T11:21:09.805Z,22.64
2023-03-17T11:26:10.490Z,22.70
2023-03-17T11:31:11.446Z,22.79
2023-03-17T11:36:12.106Z,22.82
2023-03-17T11:41:12.777Z,22.85
2023-03-17T11:46:13.784Z,22.91
2023-03-17T11:51:14.439Z,22.89
2023-03-17T11:56:15.132Z,22.84
2023-03-17T12:01:16.057Z,22.81
2023-03-17T12:06:16.734Z,22.79
2023-03-17T12:11:17.399Z,22.85
2023-03-17T12:16:18.358Z,22.79
2023-03-17T12:21:18.950Z,22.78
2023-03-17T12:26:19.586Z,22.81
2023-03-17T12:31:20.549Z,22.93
2023-03-17T12:36:21.187Z,22.96
2023-03-17T12:41:21.819Z,22.96
2023-03-17T12:46:22.823Z,22.99
2023-03-17T12:51:23.479Z,23.01
2023-03-17T12:56:24.121Z,22.94
2023-03-17T13:01:25.032Z,22.86
2023-03-17T13:06:25.668Z,22.84
2023-03-17T13:11:26.317Z,22.78
2023-03-17T13:16:27.246Z,22.72
2023-03-17T13:21:29.167Z,22.72
2023-03-17T13:26:28.351Z,22.72
2023-03-17T13:31:29.036Z,22.69
2023-03-17T13:36:29.654Z,22.69
2023-03-17T13:41:30.574Z,22.66
2023-03-17T13:46:31.285Z,22.70
2023-03-17T13:51:31.959Z,22.99
2023-03-17T13:56:32.842Z,23.25
2023-03-17T14:01:33.505Z,23.38
2023-03-17T14:06:34.151Z,23.42
2023-03-17T14:11:35.106Z,23.47
2023-03-17T14:16:35.800Z,23.42
2023-03-17T14:21:36.511Z,23.32
2023-03-17T14:26:37.396Z,23.19
2023-03-17T14:31:38.082Z,23.07
2023-03-17T14:36:38.690Z,23.03
2023-03-17T14:41:39.590Z,23.01
2023-03-17T14:46:40.230Z,22.99
2023-03-17T14:51:40.897Z,22.99
2023-03-17T14:56:41.773Z,22.94
2023-03-17T15:01:42.406Z,22.94
2023-03-17T15:06:43.053Z,22.97
2023-03-17T15:11:43.944Z,22.97
2023-03-17T15:16:44.660Z,22.94
2023-03-17T15:21:45.287Z,22.91
2023-03-17T15:26:46.199Z,23.03
2023-03-17T15:31:46.869Z,23.12
2023-03-17T15:36:47.572Z,23.07
2023-03-17T15:41:48.491Z,22.97
2023-03-17T15:46:49.113Z,22.84
2023-03-17T15:51:49.771Z,22.74
2023-03-17T15:56:50.663Z,22.66
2023-03-17T16:01:51.362Z,22.61
2023-03-17T16:06:52.015Z,22.52
2023-03-17T16:11:53.011Z,22.38
2023-03-17T16:17:00.665Z,22.27
2023-03-17T16:21:54.297Z,22.21
2023-03-17T16:26:55.224Z,22.11
2023-03-17T16:31:55.897Z,22.04
2023-03-17T16:36:56.544Z,21.94
2023-03-17T16:41:57.473Z,21.89
2023-03-17T16:46:58.403Z,21.82
2023-03-17T16:51:59.026Z,21.74
2023-03-17T16:56:59.961Z,21.66
2023-03-17T17:02:00.632Z,21.56
2023-03-17T17:07:01.294Z,21.48
2023-03-17T17:12:02.218Z,21.34
2023-03-17T17:17:02.892Z,21.24
2023-03-17T17:22:03.589Z,21.16
2023-03-17T17:27:04.541Z,21.13
2023-03-17T17:32:05.231Z,21.21
2023-03-17T17:37:05.939Z,21.27
2023-03-17T17:42:06.887Z,21.34
2023-03-17T17:47:07.576Z,21.53
2023-03-17T17:52:08.235Z,21.74
2023-03-17T17:57:09.153Z,21.77
2023-03-17T18:02:09.833Z,21.81
2023-03-17T18:07:10.493Z,21.86
2023-03-17T18:12:11.418Z,21.91
2023-03-17T18:17:12.061Z,21.93
2023-03-17T18:22:12.756Z,22.01
2023-03-17T18:27:13.679Z,22.12
2023-03-17T18:32:14.313Z,22.20
2023-03-17T18:37:15.000Z,22.23
2023-03-17T18:42:15.933Z,22.14
2023-03-17T18:47:16.609Z,22.09
2023-03-17T18:52:17.272Z,22.14
2023-03-17T18:57:18.207Z,22.17
2023-03-17T19:02:18.851Z,22.19
2023-03-17T19:07:19.516Z,22.14
2023-03-17T19:12:20.503Z,22.08
2023-03-17T19:17:21.165Z,21.99
2023-03-17T19:22:21.860Z,21.91
2023-03-17T19:27:22.773Z,21.82
2023-03-17T19:32:23.453Z,21.71
2023-03-17T19:37:24.396Z,21.61
2023-03-17T19:42:24.550Z,21.51
2023-03-17T19:47:25.466Z,21.43
2023-03-17T19:52:26.142Z,21.34
2023-03-17T19:57:26.829Z,21.30
2023-03-17T20:02:27.782Z,21.26
2023-03-17T20:07:28.540Z,21.21
2023-03-17T20:12:29.180Z,21.19
2023-03-17T20:17:30.106Z,21.13
2023-03-17T20:22:30.789Z,21.13
2023-03-17T20:27:31.505Z,21.11
2023-03-17T20:32:32.472Z,21.12
2023-03-17T20:37:33.155Z,21.06
2023-03-17T20:42:33.850Z,21.01
2023-03-17T20:47:34.830Z,21.00
2023-03-17T20:52:35.525Z,21.01
2023-03-17T20:57:36.254Z,21.00
2023-03-17T21:02:37.263Z,21.00
2023-03-17T21:07:37.945Z,20.96
2023-03-17T21:12:38.657Z,20.93
2023-03-17T21:17:39.613Z,20.88
2023-03-17T21:22:40.304Z,20.87
2023-03-17T21:27:41.015Z,20.82
2023-03-17T21:32:42.075Z,20.75
2023-03-17T21:37:42.785Z,20.64
2023-03-17T21:42:43.498Z,20.57
2023-03-17T21:47:44.501Z,20.42
2023-03-17T21:52:45.285Z,20.27
2023-03-17T21:57:46.049Z,20.13
2023-03-17T22:02:47.133Z,20.00
2023-03-17T22:07:47.866Z,19.90
2023-03-17T22:12:48.648Z,19.78
2023-03-17T22:17:49.691Z,19.71
2023-03-17T22:22:50.480Z,19.62
2023-03-17T22:27:51.270Z,19.55
2023-03-17T22:32:52.319Z,19.50
2023-03-17T22:37:53.122Z,19.46
2023-03-17T22:42:53.932Z,19.39
2023-03-17T22:48:03.937Z,19.32
2023-03-17T22:52:55.713Z,19.24
2023-03-17T22:57:56.534Z,19.17
2023-03-17T23:02:57.354Z,19.10
2023-03-17T23:07:58.415Z,19.01
2023-03-17T23:12:59.274Z,18.97
2023-03-17T23:18:00.102Z,18.87
2023-03-17T23:23:01.156Z,18.82
2023-03-17T23:28:01.977Z,18.74
2023-03-17T23:33:02.916Z,18.69
2023-03-17T23:38:03.993Z,18.65
2023-03-17T23:43:04.824Z,18.60
2023-03-17T23:48:05.675Z,18.51
2023-03-17T23:53:06.769Z,18.49
2023-03-17T23:58:07.623Z,18.42
